Grand Marsh, WI (53936)

10:38 AM CDT on July 23, 2016 (GMT -0500)
Rural Adams County, WI | | Change Station

Elev 951 ft 43.83 °N, 89.78 °W | Updated 18 seconds ago

Mostly Cloudy
Mostly Cloudy
80.1 °F
Feels Like 85 °F
N
0.1
Wind Variable Wind from West
Gusts 1.6 mph

Today
High -- | Low -- °F
--% Chance of Precip.
Yesterday
High -- | Low -- °F
Precip. -- in
Pressure 29.98 in
Visibility 10.0 miles
Clouds Mostly Cloudy 1100 ft
Mostly Cloudy 2400 ft
Mostly Cloudy 11000 ft
Heat Index 85 °F
Dew Point 74 °F
Humidity 83%
Rainfall 0.00 in
Snow Depth Not available.
5:38 AM 8:31 PM
Waning Gibbous, 84% visible
METAR KDLL 231510Z AUTO 10004KT 10SM BKN011 BKN024 BKN110 26/25 A2998 RMK AO2 T02580247
Pressure 29.98 in
Visibility 10.0 miles
Clouds Mostly Cloudy 1100 ft
Mostly Cloudy 2400 ft
Mostly Cloudy 11000 ft
Heat Index 85 °F
Dew Point 74 °F
Humidity 83%
Rainfall 0.00 in
Snow Depth Not available.
5:38 AM 8:31 PM
Waning Gibbous, 84% visible
METAR KDLL 231510Z AUTO 10004KT 10SM BKN011 BKN024 BKN110 26/25 A2998 RMK AO2 T02580247

10-Day Weather Forecast

Almanac

Astronomy

Jul. 23, 2016 Rise Set
Actual Time
Civil Twilight
Nautical Twilight
Astronomical Twilight
Moon
Length of Visible Light
Length of Day
Tomorrow will be .
, % of the Moon is Illuminated

Today's Extremes

State Highs State Lows

Community

WunderPhotos

Upload Photos

1,926,847 photos uploaded!

WunderBlog® & News

Nearby

Air Quality

  Air Quality AQ Index Pollutant
Not available.

Snow Depth

Station Depth Elevation

Earthquake Activity

City Distance Mag. Time & Date
Minimum magnitude displayed is 2.5.

Coastal Water Temperatures

Place Temperature

Stations

Nearby Weather Stations

Station Location Temp. Windchill Dew Point Humidity Wind Precip. Elev Updated Type
                   

Watches & Warnings

There are currently no watches in effect.